Adelaide International Airport
YPAD : now visible

Airfield :











YOU CAN JOIN US ON...

 
LOGIN :

Register | Disclaimer

   EN    FR    IT 

 









Legend :    VFR   Marginal VFR   IFR   Intensive IFR   Very Intensive IFR
Visi :
Ceiling :
>= 8 km
>= 3000ft
5 to 8 km
1000 to 3000 ft
1500m to 5 km
500 to 1000 ft
800 to 1500m
200 to 500 ft
< 800m
< 200 ft
Symbols :   Thunderstorms  Fog  Heavy snow  Heavy precipitations  Wind > 20 kt






- Airport Elevation : 20 ft
- IATA code : ADL


YPAD - Adelaide International

CURRENT METAR :
  • 161930Z 01014KT CAVOK 21/01 Q1006

EXPIRED METARs :
  • 161900Z 03016KT CAVOK 21/01 Q1005
  • 161830Z 03021KT CAVOK 22/01 Q1004
  • 161817Z 03021KT CAVOK 22/01 Q1004 FEW100 SCT130 DISTANT LIGHTNING TO EAST
  • 161800Z 03021KT 9999 -TSRA SCT100CB BKN120 22/01 Q1004 RETS
  • 161734Z 04017G27KT 9999 TSRA FEW100CB BKN130 23/M00 Q1005 RETS
  • 161730Z 04018KT 9999 TS FEW100CB BKN120 23/00 Q1005 RETS
  • 161710Z 04019KT 9999 TS FEW080CB BKN140 23/00 Q1005 RF00/0/000/0
  • 161700Z 03017KT 9999 VCTS FEW080CB BKN140 23/00 Q1005 RETS
  • 161630Z 03017KT 9999 -TSRA FEW080CB BKN140 22/02 Q1006 RETS

TAF AMD TAF YPAD
Valid from the 16 at 18:00 until the 18 at 00:00 UTC


161900Z 1618/1800 03020G30KT CAVOK
FM162000 02012KT CAVOK
FM170200 23014KT CAVOK
FM170900 25012KT 9999 -SHRA BKN030 INTER 1714/1800 25015G25KT 5000 SHRA SCT015
YMMM FIR / Oceania



MET'MAP, your aeronautical weather chart ! - Copyright ORBIFLY December 2007 - Disclaimer

ORBIFLY MET'MAP TEAM :

Programming & Development : Alexandra Zaïnal
Concept & original design : Baudouin d'Aumeries
Assistance for programming : Marc-Olivier Méhu
Technical & hardware support : Manuel Goepfert

Contact : metmap@orbifly.com




SOURCES & CREDITS :

   NOAA       Earth
Advisory